createdAt,value
2019-03-30T00:01:23.862Z,6.50
2019-03-30T00:03:53.180Z,6.50
2019-03-30T00:06:23.384Z,6.40
2019-03-30T00:08:54.706Z,6.40
2019-03-30T00:11:23.411Z,6.30
2019-03-30T00:13:52.223Z,6.20
2019-03-30T00:16:20.856Z,6.10
2019-03-30T00:18:49.586Z,6.10
2019-03-30T00:21:18.272Z,6.20
2019-03-30T00:23:50.655Z,6.10
2019-03-30T00:26:26.711Z,6.10
2019-03-30T00:28:55.387Z,6.00
2019-03-30T00:31:27.419Z,6.00
2019-03-30T00:33:56.137Z,6.00
2019-03-30T00:36:24.877Z,6.00
2019-03-30T00:38:53.519Z,6.00
2019-03-30T00:41:22.143Z,5.90
2019-03-30T00:43:52.343Z,5.80
2019-03-30T00:46:23.667Z,5.80
2019-03-30T00:48:52.321Z,5.90
2019-03-30T00:51:26.804Z,5.90
2019-03-30T00:53:55.374Z,5.90
2019-03-30T00:56:24.072Z,6.00
2019-03-30T00:58:52.741Z,5.90
2019-03-30T01:01:21.449Z,5.90
2019-03-30T01:03:50.244Z,5.70
2019-03-30T01:06:19.290Z,5.70
2019-03-30T01:08:48.295Z,5.70
2019-03-30T01:11:18.404Z,5.70
2019-03-30T01:13:47.218Z,5.60
2019-03-30T01:16:16.051Z,5.60
2019-03-30T01:18:48.202Z,5.60
2019-03-30T01:21:22.978Z,5.60
2019-03-30T01:23:51.704Z,5.50
2019-03-30T01:26:20.419Z,5.60
2019-03-30T01:28:49.090Z,5.60
2019-03-30T01:31:17.730Z,5.50
2019-03-30T01:33:46.622Z,5.50
2019-03-30T01:36:15.458Z,5.50
2019-03-30T01:38:44.021Z,5.50
2019-03-30T01:41:12.736Z,5.50
2019-03-30T01:43:41.480Z,5.50
2019-03-30T01:46:10.115Z,5.30
2019-03-30T01:48:38.761Z,5.30
2019-03-30T01:51:07.433Z,5.20
2019-03-30T01:53:36.146Z,5.20
2019-03-30T01:56:05.446Z,5.10
2019-03-30T01:58:34.176Z,5.10
2019-03-30T02:01:04.825Z,5.20
2019-03-30T02:03:33.242Z,5.20
2019-03-30T02:06:01.981Z,5.10
2019-03-30T02:08:31.071Z,5.10
2019-03-30T02:10:59.725Z,5.00
2019-03-30T02:13:28.477Z,5.00
2019-03-30T02:15:57.203Z,5.00
2019-03-30T02:18:25.911Z,5.00
2019-03-30T02:20:54.577Z,4.90
2019-03-30T02:23:23.251Z,4.80
2019-03-30T02:25:51.952Z,4.70
2019-03-30T02:28:21.769Z,4.80
2019-03-30T02:30:51.920Z,4.80
2019-03-30T02:33:20.631Z,4.80
2019-03-30T02:35:49.333Z,4.80
2019-03-30T02:38:18.048Z,4.80
2019-03-30T02:40:46.737Z,4.60
2019-03-30T02:43:15.356Z,4.60
2019-03-30T02:45:44.058Z,4.60
2019-03-30T02:48:12.691Z,4.70
2019-03-30T02:50:50.020Z,4.70
2019-03-30T02:53:11.666Z,4.70
2019-03-30T02:55:40.316Z,4.70
2019-03-30T02:58:09.059Z,4.70
2019-03-30T03:00:37.872Z,4.60
2019-03-30T03:03:06.573Z,4.60
2019-03-30T03:05:35.333Z,4.60
2019-03-30T03:08:03.990Z,4.50
2019-03-30T03:10:32.891Z,4.40
2019-03-30T03:13:01.637Z,4.30
2019-03-30T03:15:30.389Z,4.30
2019-03-30T03:17:59.543Z,4.40
2019-03-30T03:20:28.218Z,4.50
2019-03-30T03:22:56.867Z,4.50
2019-03-30T03:25:25.693Z,4.50
2019-03-30T03:28:13.885Z,4.50
2019-03-30T03:30:42.529Z,4.30
2019-03-30T03:33:11.179Z,4.30
2019-03-30T03:35:39.922Z,4.30
2019-03-30T03:38:08.628Z,4.30
2019-03-30T03:40:37.445Z,4.30
2019-03-30T03:43:06.695Z,4.30
2019-03-30T03:45:35.572Z,4.20
2019-03-30T03:48:04.296Z,4.20
2019-03-30T03:50:38.167Z,4.20
2019-03-30T03:53:07.275Z,4.20
2019-03-30T03:55:37.465Z,4.20
2019-03-30T03:58:07.711Z,4.20
2019-03-30T04:00:36.720Z,4.30
2019-03-30T04:03:05.933Z,4.20
2019-03-30T04:05:39.012Z,4.20
2019-03-30T04:08:10.513Z,4.10
2019-03-30T04:10:39.795Z,4.10
2019-03-30T04:13:10.810Z,4.10
2019-03-30T04:15:39.835Z,4.10
2019-03-30T04:18:08.739Z,4.10
2019-03-30T04:20:44.615Z,4.00
2019-03-30T04:23:13.330Z,3.90
2019-03-30T04:25:44.743Z,3.80
2019-03-30T04:28:13.369Z,3.90
2019-03-30T04:30:42.090Z,4.00
2019-03-30T04:33:10.762Z,4.10
2019-03-30T04:35:39.692Z,4.10
2019-03-30T04:38:08.404Z,4.10
2019-03-30T04:40:37.139Z,4.00
2019-03-30T04:43:05.838Z,4.00
2019-03-30T04:45:34.483Z,3.90
2019-03-30T04:48:03.230Z,4.00
2019-03-30T04:50:31.867Z,3.90
2019-03-30T04:53:00.506Z,3.90
2019-03-30T04:55:29.197Z,3.90
2019-03-30T04:57:58.087Z,3.90
2019-03-30T05:00:27.099Z,3.90
2019-03-30T05:02:55.763Z,3.80
2019-03-30T05:05:24.675Z,3.80
2019-03-30T05:07:53.661Z,3.70
2019-03-30T05:10:22.345Z,3.70
2019-03-30T05:12:52.737Z,3.60
2019-03-30T05:15:21.452Z,3.50
2019-03-30T05:17:53.177Z,3.50
2019-03-30T05:20:22.896Z,3.60
2019-03-30T05:22:53.091Z,3.70
2019-03-30T05:25:21.861Z,3.70
2019-03-30T05:27:50.493Z,3.80
2019-03-30T05:30:19.217Z,3.80
2019-03-30T05:32:47.960Z,3.90
2019-03-30T05:35:16.707Z,3.90
2019-03-30T05:37:46.989Z,3.90
2019-03-30T05:40:15.729Z,4.00
2019-03-30T05:42:44.369Z,4.20
2019-03-30T05:45:13.681Z,4.40
2019-03-30T05:47:42.281Z,4.60
2019-03-30T05:50:11.263Z,4.80
2019-03-30T05:52:39.991Z,5.00
2019-03-30T05:55:09.113Z,5.20
2019-03-30T05:57:40.490Z,5.50
2019-03-30T06:00:16.353Z,5.80
2019-03-30T06:02:45.059Z,5.90
2019-03-30T06:05:13.760Z,6.10
2019-03-30T06:07:42.428Z,6.20
2019-03-30T06:10:11.439Z,6.60
2019-03-30T06:12:40.154Z,6.60
2019-03-30T06:15:08.994Z,6.50
2019-03-30T06:17:40.161Z,6.70
2019-03-30T06:20:32.757Z,6.90
2019-03-30T06:23:01.398Z,7.20
2019-03-30T06:25:30.028Z,7.40
2019-03-30T06:27:58.693Z,7.50
2019-03-30T06:30:28.398Z,7.50
2019-03-30T06:32:57.105Z,7.60
2019-03-30T06:35:28.991Z,7.70
2019-03-30T06:37:57.710Z,7.80
2019-03-30T06:40:26.434Z,8.10
2019-03-30T06:42:55.418Z,8.50
2019-03-30T06:45:24.052Z,8.80
2019-03-30T06:47:52.697Z,9.10
2019-03-30T06:50:21.483Z,9.20
2019-03-30T06:52:57.311Z,9.40
2019-03-30T06:55:20.668Z,9.60
2019-03-30T06:57:49.290Z,9.60
2019-03-30T07:00:19.658Z,9.70
2019-03-30T07:02:48.372Z,9.80
2019-03-30T07:05:18.584Z,9.80
2019-03-30T07:07:47.686Z,9.80
2019-03-30T07:10:16.394Z,9.80
2019-03-30T07:12:46.994Z,9.80
2019-03-30T07:15:16.520Z,9.90
2019-03-30T07:17:46.909Z,10.00
2019-03-30T07:20:29.614Z,10.10
2019-03-30T07:23:11.255Z,10.40
2019-03-30T07:25:34.793Z,10.70
2019-03-30T07:28:03.507Z,11.00
2019-03-30T07:30:32.162Z,11.50
2019-03-30T07:33:03.874Z,11.80
2019-03-30T07:35:32.227Z,12.10
2019-03-30T07:38:01.082Z,12.30
2019-03-30T07:40:29.723Z,12.40
2019-03-30T07:42:58.687Z,12.40
2019-03-30T07:45:27.410Z,12.60
2019-03-30T07:47:56.080Z,12.60
2019-03-30T07:50:25.032Z,12.80
2019-03-30T07:52:53.761Z,13.00
2019-03-30T07:55:22.593Z,13.00
2019-03-30T07:58:10.619Z,13.10
2019-03-30T08:00:39.552Z,13.10
2019-03-30T08:03:08.238Z,13.10
2019-03-30T08:05:36.897Z,13.10
2019-03-30T08:08:05.661Z,13.20
2019-03-30T08:10:36.710Z,13.10
2019-03-30T08:13:07.758Z,13.10
2019-03-30T08:15:37.363Z,13.20
2019-03-30T08:18:06.498Z,13.40
2019-03-30T08:20:36.869Z,13.20
2019-03-30T08:23:05.949Z,13.30
2019-03-30T08:25:34.723Z,13.50
2019-03-30T08:28:06.347Z,13.70
2019-03-30T08:30:35.211Z,13.70
2019-03-30T08:33:03.935Z,13.90
2019-03-30T08:35:35.269Z,13.90
2019-03-30T08:38:04.427Z,13.90
2019-03-30T08:40:33.585Z,13.90
2019-03-30T08:43:02.302Z,14.00
2019-03-30T08:45:31.045Z,14.20
2019-03-30T08:47:59.831Z,14.10
2019-03-30T08:50:33.721Z,13.90
2019-03-30T08:53:02.517Z,13.90
2019-03-30T08:55:31.318Z,14.00
2019-03-30T08:58:00.037Z,14.10
2019-03-30T09:00:42.152Z,14.10
2019-03-30T09:03:22.660Z,14.40
2019-03-30T09:05:51.469Z,14.40
2019-03-30T09:08:23.680Z,14.50
2019-03-30T09:10:52.679Z,14.80
2019-03-30T09:13:21.374Z,14.70
2019-03-30T09:15:50.095Z,14.70
2019-03-30T09:18:19.311Z,15.00
2019-03-30T09:20:48.302Z,15.10
2019-03-30T09:23:17.001Z,15.40
2019-03-30T09:25:45.715Z,15.60
2019-03-30T09:28:16.587Z,15.50
2019-03-30T09:30:45.375Z,15.70
2019-03-30T09:33:14.318Z,15.60
2019-03-30T09:35:43.071Z,15.50
2019-03-30T09:38:14.658Z,15.60
2019-03-30T09:40:43.631Z,15.90
2019-03-30T09:43:15.303Z,16.20
2019-03-30T09:45:45.557Z,16.40
2019-03-30T09:48:14.340Z,16.10
2019-03-30T09:50:43.094Z,16.00
2019-03-30T09:53:11.869Z,16.10
2019-03-30T09:55:40.500Z,16.10
2019-03-30T09:58:12.265Z,16.40
2019-03-30T10:00:40.972Z,16.70
2019-03-30T10:03:09.772Z,16.80
2019-03-30T10:05:38.985Z,17.10
2019-03-30T10:08:07.646Z,17.40
2019-03-30T10:10:38.432Z,17.40
2019-03-30T10:13:08.786Z,17.80
2019-03-30T10:15:37.668Z,18.10
2019-03-30T10:18:06.400Z,18.30
2019-03-30T10:20:43.728Z,18.70
2019-03-30T10:23:13.445Z,18.70
2019-03-30T10:25:45.798Z,18.80
2019-03-30T10:28:14.547Z,18.50
2019-03-30T10:30:44.410Z,18.70
2019-03-30T10:33:13.014Z,19.20
2019-03-30T10:35:41.772Z,19.60
2019-03-30T10:38:10.483Z,19.50
2019-03-30T10:40:39.211Z,20.20
2019-03-30T10:43:07.963Z,20.50
2019-03-30T10:45:36.685Z,20.70
2019-03-30T10:48:05.576Z,20.90
2019-03-30T10:50:34.399Z,20.80
2019-03-30T10:53:05.059Z,20.90
2019-03-30T10:55:33.490Z,20.80
2019-03-30T10:58:04.922Z,20.20
2019-03-30T11:00:38.882Z,20.30
2019-03-30T11:03:08.728Z,20.20
2019-03-30T11:05:38.794Z,20.10
2019-03-30T11:08:07.690Z,20.40
2019-03-30T11:10:36.437Z,20.60
2019-03-30T11:13:06.918Z,20.50
2019-03-30T11:18:25.927Z,20.80
2019-03-30T11:20:55.684Z,20.30
2019-03-30T11:23:24.391Z,20.00
2019-03-30T11:28:30.685Z,19.80
2019-03-30T11:31:00.577Z,19.80
2019-03-30T11:33:29.384Z,19.80
2019-03-30T11:38:40.797Z,19.60
2019-03-30T11:41:11.467Z,19.60
2019-03-30T11:43:40.183Z,19.50
2019-03-30T11:46:10.767Z,19.90
2019-03-30T11:48:39.474Z,20.20
2019-03-30T11:51:13.776Z,20.90
2019-03-30T11:53:45.591Z,21.00
2019-03-30T11:56:18.785Z,20.80
2019-03-30T11:58:47.501Z,20.70
2019-03-30T12:01:16.231Z,20.80
2019-03-30T12:03:44.916Z,20.90
2019-03-30T12:06:14.459Z,21.10
2019-03-30T12:08:44.835Z,21.70
2019-03-30T12:11:16.910Z,21.60
2019-03-30T12:13:47.517Z,21.30
2019-03-30T12:16:18.829Z,20.70
2019-03-30T12:18:53.883Z,20.50
2019-03-30T12:21:22.782Z,20.60
2019-03-30T12:23:51.529Z,20.90
2019-03-30T12:26:20.101Z,21.00
2019-03-30T12:28:48.801Z,20.90
2019-03-30T12:31:19.959Z,20.90
2019-03-30T12:33:49.147Z,21.20
2019-03-30T12:36:19.653Z,21.20
2019-03-30T12:38:48.857Z,21.20
2019-03-30T12:41:17.731Z,21.80
2019-03-30T12:43:46.634Z,22.10
2019-03-30T12:46:15.329Z,22.10
2019-03-30T12:48:45.836Z,21.80
2019-03-30T12:51:14.403Z,22.20
2019-03-30T12:53:50.379Z,22.80
2019-03-30T12:56:18.961Z,23.00
2019-03-30T12:58:48.805Z,22.60
2019-03-30T13:01:20.587Z,22.50
2019-03-30T13:03:49.118Z,22.60
2019-03-30T13:06:19.318Z,22.30
2019-03-30T13:08:49.794Z,22.10
2019-03-30T13:11:18.499Z,22.40
2019-03-30T13:13:47.184Z,22.50
2019-03-30T13:16:17.765Z,22.50
2019-03-30T13:18:46.729Z,22.00
2019-03-30T13:21:15.809Z,21.70
2019-03-30T13:23:44.517Z,21.20
2019-03-30T13:26:13.149Z,20.70
2019-03-30T13:28:45.456Z,20.90
2019-03-30T13:31:14.159Z,20.40
2019-03-30T13:33:42.807Z,20.20
2019-03-30T13:36:12.137Z,20.40
2019-03-30T13:38:40.784Z,20.30
2019-03-30T13:41:09.419Z,20.40
2019-03-30T13:43:38.086Z,20.60
2019-03-30T13:46:06.915Z,20.50
2019-03-30T13:48:38.347Z,20.40
2019-03-30T13:51:08.027Z,20.50
2019-03-30T13:53:36.733Z,20.50
2019-03-30T13:56:16.591Z,20.40
2019-03-30T13:58:36.610Z,20.20
2019-03-30T14:01:05.924Z,20.00
2019-03-30T14:03:34.483Z,19.90
2019-03-30T14:06:03.086Z,19.40
2019-03-30T14:08:31.767Z,19.30
2019-03-30T14:11:00.451Z,19.10
2019-03-30T14:13:29.222Z,19.10
2019-03-30T14:15:58.014Z,19.30
2019-03-30T14:18:28.844Z,19.60
2019-03-30T14:20:57.425Z,20.20
2019-03-30T14:23:25.988Z,20.30
2019-03-30T14:25:56.954Z,20.00
2019-03-30T14:28:26.759Z,19.70
2019-03-30T14:30:57.693Z,19.50
2019-03-30T14:33:29.298Z,19.60
2019-03-30T14:36:01.246Z,19.30
2019-03-30T14:38:30.091Z,19.20
2019-03-30T14:40:58.833Z,19.20
2019-03-30T14:43:27.721Z,19.30
2019-03-30T14:45:56.423Z,19.50
2019-03-30T14:48:28.019Z,19.70
2019-03-30T14:50:56.659Z,19.80
2019-03-30T14:53:25.522Z,19.60
2019-03-30T14:55:54.286Z,19.60
2019-03-30T14:58:23.086Z,19.30
2019-03-30T15:00:51.594Z,19.10
2019-03-30T15:03:20.247Z,19.10
2019-03-30T15:05:49.668Z,19.00
2019-03-30T15:08:19.259Z,18.80
2019-03-30T15:10:48.838Z,18.70
2019-03-30T15:13:17.502Z,18.70
2019-03-30T15:15:46.437Z,18.80
2019-03-30T15:18:15.432Z,19.00
2019-03-30T15:20:45.039Z,19.10
2019-03-30T15:23:13.548Z,19.00
2019-03-30T15:25:44.672Z,18.70
2019-03-30T15:28:13.418Z,18.40
2019-03-30T15:30:42.130Z,18.20
2019-03-30T15:33:12.236Z,18.20
2019-03-30T15:35:42.444Z,18.30
2019-03-30T15:38:11.273Z,18.30
2019-03-30T15:40:45.854Z,18.20
2019-03-30T15:43:14.412Z,18.20
2019-03-30T15:45:43.191Z,18.20
2019-03-30T15:48:11.904Z,18.10
2019-03-30T15:50:40.666Z,18.20
2019-03-30T15:53:09.292Z,18.20
2019-03-30T15:55:43.988Z,18.20
2019-03-30T15:58:10.301Z,18.10
2019-03-30T16:00:38.935Z,18.00
2019-03-30T16:03:10.368Z,18.00
2019-03-30T16:05:42.301Z,17.80
2019-03-30T16:08:10.940Z,17.80
2019-03-30T16:10:39.723Z,17.80
2019-03-30T16:13:08.758Z,17.70
2019-03-30T16:15:37.387Z,17.80
2019-03-30T16:18:08.818Z,17.70
2019-03-30T16:20:40.794Z,17.50
2019-03-30T16:23:12.179Z,17.50
2019-03-30T16:25:40.893Z,17.40
2019-03-30T16:28:15.359Z,17.30
2019-03-30T16:30:51.385Z,17.20
2019-03-30T16:33:21.994Z,17.20
2019-03-30T16:35:53.619Z,17.20
2019-03-30T16:38:22.314Z,17.20
2019-03-30T16:40:53.882Z,17.10
2019-03-30T16:43:22.730Z,17.10
2019-03-30T16:45:51.373Z,17.20
2019-03-30T16:48:20.307Z,17.20
2019-03-30T16:50:52.513Z,17.20
2019-03-30T16:53:21.163Z,17.30
2019-03-30T16:55:50.043Z,17.30
2019-03-30T16:58:23.028Z,17.40
2019-03-30T17:00:56.510Z,17.30
2019-03-30T17:03:19.783Z,17.30
2019-03-30T17:05:49.186Z,17.30
2019-03-30T17:08:20.695Z,17.20
2019-03-30T17:10:49.372Z,17.10
2019-03-30T17:13:19.207Z,17.00
2019-03-30T17:15:52.731Z,17.00
2019-03-30T17:18:22.879Z,16.90
2019-03-30T17:20:53.311Z,16.80
2019-03-30T17:23:22.275Z,16.70
2019-03-30T17:25:55.342Z,16.60
2019-03-30T17:28:25.530Z,16.40
2019-03-30T17:30:54.255Z,16.30
2019-03-30T17:33:22.933Z,16.10
2019-03-30T17:35:51.576Z,16.10
2019-03-30T17:38:20.493Z,16.00
2019-03-30T17:40:49.286Z,15.80
2019-03-30T17:43:17.972Z,15.70
2019-03-30T17:45:46.752Z,15.60
2019-03-30T17:48:15.427Z,15.50
2019-03-30T17:50:47.212Z,15.40
2019-03-30T17:53:17.777Z,15.30
2019-03-30T17:55:46.585Z,15.20
2019-03-30T17:58:16.872Z,15.10
2019-03-30T18:00:47.006Z,15.10
2019-03-30T18:03:16.671Z,15.00
2019-03-30T18:05:48.326Z,14.90
2019-03-30T18:08:18.719Z,14.90
2019-03-30T18:10:49.706Z,14.60
2019-03-30T18:13:22.306Z,14.20
2019-03-30T18:15:50.933Z,13.80
2019-03-30T18:18:22.607Z,13.50
2019-03-30T18:20:57.388Z,13.20
2019-03-30T18:23:29.875Z,13.00
2019-03-30T18:25:58.464Z,13.00
2019-03-30T18:28:27.752Z,12.80
2019-03-30T18:30:56.569Z,12.70
2019-03-30T18:33:26.308Z,12.70
2019-03-30T18:35:55.542Z,12.60
2019-03-30T18:38:24.516Z,12.60
2019-03-30T18:40:54.958Z,12.60
2019-03-30T18:43:28.196Z,12.40
2019-03-30T18:45:56.834Z,12.30
2019-03-30T18:48:25.780Z,12.30
2019-03-30T18:50:54.455Z,12.30
2019-03-30T18:53:23.168Z,12.40
2019-03-30T18:55:54.736Z,12.40
2019-03-30T18:58:40.691Z,12.40
2019-03-30T19:00:57.440Z,12.40
2019-03-30T19:03:40.244Z,12.20
2019-03-30T19:05:58.078Z,12.20
2019-03-30T19:08:28.580Z,12.20
2019-03-30T19:10:59.606Z,12.20
2019-03-30T19:13:28.330Z,12.20
2019-03-30T19:16:01.529Z,12.00
2019-03-30T19:18:30.225Z,12.00
2019-03-30T19:21:04.109Z,11.90
2019-03-30T19:23:33.056Z,12.00
2019-03-30T19:26:02.181Z,11.90
2019-03-30T19:28:30.874Z,11.80
2019-03-30T19:31:02.692Z,11.90
2019-03-30T19:33:31.330Z,11.90
2019-03-30T19:36:00.172Z,11.90
2019-03-30T19:38:28.796Z,11.90
2019-03-30T19:41:00.868Z,11.90
2019-03-30T19:43:29.531Z,11.90
2019-03-30T19:45:59.876Z,12.00
2019-03-30T19:48:36.977Z,11.90
2019-03-30T19:51:05.233Z,11.90
2019-03-30T19:53:33.876Z,12.10
2019-03-30T19:56:02.947Z,12.10
2019-03-30T19:58:31.907Z,12.10
2019-03-30T20:01:09.224Z,11.80
2019-03-30T20:03:39.524Z,11.60
2019-03-30T20:06:09.879Z,11.60
2019-03-30T20:08:38.729Z,11.50
2019-03-30T20:11:07.445Z,11.40
2019-03-30T20:13:36.242Z,11.30
2019-03-30T20:16:09.403Z,11.30
2019-03-30T20:18:40.906Z,11.20
2019-03-30T20:21:09.551Z,11.10
2019-03-30T20:23:38.311Z,11.20
2019-03-30T20:26:17.849Z,11.00
2019-03-30T20:28:52.627Z,10.90
2019-03-30T20:31:21.347Z,10.70
2019-03-30T20:33:49.984Z,10.60
2019-03-30T20:36:20.431Z,10.50
2019-03-30T20:38:49.170Z,10.30
2019-03-30T20:41:19.647Z,10.20
2019-03-30T20:43:51.378Z,10.10
2019-03-30T20:46:21.724Z,10.00
2019-03-30T20:48:50.701Z,9.80
2019-03-30T20:51:21.410Z,9.70
2019-03-30T20:53:57.357Z,9.60
2019-03-30T20:56:26.088Z,9.70
2019-03-30T20:58:56.201Z,9.70
2019-03-30T21:01:25.900Z,9.70
2019-03-30T21:03:54.570Z,9.60
2019-03-30T21:06:23.287Z,9.70
2019-03-30T21:08:51.849Z,9.80
2019-03-30T21:11:20.698Z,9.80
2019-03-30T21:13:56.907Z,9.90
2019-03-30T21:16:25.636Z,9.80
2019-03-30T21:18:54.271Z,9.80
2019-03-30T21:21:26.135Z,9.70
2019-03-30T21:23:55.453Z,9.70
2019-03-30T21:26:31.693Z,9.70
2019-03-30T21:29:00.536Z,9.70
2019-03-30T21:31:29.182Z,9.70
2019-03-30T21:33:57.891Z,9.70
2019-03-30T21:36:26.681Z,9.60
2019-03-30T21:39:00.949Z,9.50
2019-03-30T21:41:29.762Z,9.40
2019-03-30T21:44:00.121Z,9.40
2019-03-30T21:46:28.714Z,9.40
2019-03-30T21:48:57.581Z,9.50
2019-03-30T21:51:28.162Z,9.50
2019-03-30T21:53:56.734Z,9.40
2019-03-30T21:56:27.713Z,9.40
2019-03-30T21:59:02.287Z,9.40
2019-03-30T22:01:30.926Z,9.20
2019-03-30T22:04:04.810Z,9.20
2019-03-30T22:06:36.294Z,9.10
2019-03-30T22:09:09.561Z,9.10
2019-03-30T22:11:41.164Z,9.10
2019-03-30T22:14:09.883Z,9.00
2019-03-30T22:16:38.518Z,9.00
2019-03-30T22:19:07.343Z,9.00
2019-03-30T22:21:36.678Z,9.00
2019-03-30T22:24:05.621Z,8.90
2019-03-30T22:26:36.984Z,8.90
2019-03-30T22:29:05.686Z,8.80
2019-03-30T22:31:34.441Z,8.70
2019-03-30T22:34:04.641Z,8.70
2019-03-30T22:36:35.071Z,8.70
2019-03-30T22:39:05.767Z,8.80
2019-03-30T22:41:34.703Z,8.70
2019-03-30T22:44:03.717Z,8.70
2019-03-30T22:46:32.531Z,8.70
2019-03-30T22:49:04.227Z,8.60
2019-03-30T22:51:33.450Z,8.50
2019-03-30T22:54:02.920Z,8.40
2019-03-30T22:56:33.488Z,8.40
2019-03-30T22:59:02.172Z,8.30
2019-03-30T23:01:31.145Z,8.30
2019-03-30T23:04:00.582Z,8.30
2019-03-30T23:06:29.249Z,8.20
2019-03-30T23:09:00.948Z,8.20
2019-03-30T23:11:29.587Z,8.20
2019-03-30T23:13:58.254Z,8.30
2019-03-30T23:16:28.791Z,8.40
2019-03-30T23:18:59.687Z,8.30
2019-03-30T23:21:28.910Z,8.30
2019-03-30T23:24:00.514Z,8.30
2019-03-30T23:26:29.294Z,8.30
2019-03-30T23:29:05.292Z,8.40
2019-03-30T23:31:39.913Z,8.40
2019-03-30T23:34:08.849Z,8.50
2019-03-30T23:36:40.172Z,8.50
2019-03-30T23:39:09.417Z,8.50
2019-03-30T23:41:39.981Z,8.40
2019-03-30T23:44:08.561Z,8.40
2019-03-30T23:46:37.409Z,8.20
2019-03-30T23:49:06.107Z,8.20
2019-03-30T23:51:34.749Z,8.20
2019-03-30T23:54:07.655Z,8.30
2019-03-30T23:56:36.375Z,8.40
2019-03-30T23:59:05.094Z,8.30
